createdAt,value
2017-01-24T00:00:28.736Z,1014.66
2017-01-24T00:01:09.407Z,1014.63
2017-01-24T00:01:50.023Z,1014.63
2017-01-24T00:02:30.664Z,1014.64
2017-01-24T00:03:11.293Z,1014.62
2017-01-24T00:03:51.935Z,1014.63
2017-01-24T00:04:32.570Z,1014.62
2017-01-24T00:05:13.204Z,1014.64
2017-01-24T00:05:53.844Z,1014.63
2017-01-24T00:06:34.524Z,1014.62
2017-01-24T00:07:15.159Z,1014.65
2017-01-24T00:07:55.809Z,1014.59
2017-01-24T00:08:36.464Z,1014.59
2017-01-24T00:09:17.121Z,1014.58
2017-01-24T00:09:57.771Z,1014.56
2017-01-24T00:10:38.402Z,1014.59
2017-01-24T00:11:19.031Z,1014.62
2017-01-24T00:11:59.671Z,1014.62
2017-01-24T00:12:40.313Z,1014.59
2017-01-24T00:13:20.952Z,1014.59
2017-01-24T00:14:01.645Z,1014.62
2017-01-24T00:14:42.280Z,1014.62
2017-01-24T00:15:22.929Z,1014.6
2017-01-24T00:16:03.580Z,1014.6
2017-01-24T00:16:44.210Z,1014.6
2017-01-24T00:17:24.925Z,1014.6
2017-01-24T00:18:05.551Z,1014.58
2017-01-24T00:18:46.195Z,1014.57
2017-01-24T00:19:27.806Z,1014.52
2017-01-24T00:20:08.470Z,1014.57
2017-01-24T00:20:49.095Z,1014.59
2017-01-24T00:21:29.845Z,1014.57
2017-01-24T00:22:10.479Z,1014.59
2017-01-24T00:22:51.100Z,1014.59
2017-01-24T00:23:31.745Z,1014.56
2017-01-24T00:24:12.367Z,1014.58
2017-01-24T00:24:52.996Z,1014.59
2017-01-24T00:25:33.626Z,1014.59
2017-01-24T00:26:14.257Z,1014.58
2017-01-24T00:26:54.908Z,1014.6
2017-01-24T00:27:35.541Z,1014.56
2017-01-24T00:28:16.170Z,1014.58
2017-01-24T00:28:56.874Z,1014.55
2017-01-24T00:29:37.505Z,1014.55
2017-01-24T00:30:18.130Z,1014.55
2017-01-24T00:30:58.804Z,1014.54
2017-01-24T00:31:39.434Z,1014.52
2017-01-24T00:32:20.072Z,1014.52
2017-01-24T00:33:00.741Z,1014.49
2017-01-24T00:33:41.400Z,1014.5
2017-01-24T00:34:22.033Z,1014.52
2017-01-24T00:35:02.665Z,1014.47
2017-01-24T00:35:43.307Z,1014.48
2017-01-24T00:36:23.939Z,1014.49
2017-01-24T00:37:04.558Z,1014.48
2017-01-24T00:37:45.181Z,1014.47
2017-01-24T00:38:25.804Z,1014.41
2017-01-24T00:39:06.443Z,1014.46
2017-01-24T00:39:47.080Z,1014.46
2017-01-24T00:40:27.724Z,1014.4
2017-01-24T00:41:08.357Z,1014.35
2017-01-24T00:41:49.000Z,1014.37
2017-01-24T00:42:29.629Z,1014.36
2017-01-24T00:43:10.275Z,1014.41
2017-01-24T00:43:50.900Z,1014.37
2017-01-24T00:44:31.520Z,1014.36
2017-01-24T00:45:12.169Z,1014.38
2017-01-24T00:45:52.799Z,1014.39
2017-01-24T00:46:33.426Z,1014.38
2017-01-24T00:47:14.122Z,1014.41
2017-01-24T00:47:54.749Z,1014.39
2017-01-24T00:48:35.385Z,1014.35
2017-01-24T00:49:16.030Z,1014.35
2017-01-24T00:49:56.666Z,1014.38
2017-01-24T00:50:37.295Z,1014.31
2017-01-24T00:51:17.962Z,1014.32
2017-01-24T00:51:58.633Z,1014.28
2017-01-24T00:52:39.272Z,1014.34
2017-01-24T00:53:19.924Z,1014.34
2017-01-24T00:54:00.562Z,1014.31
2017-01-24T00:54:41.200Z,1014.29
2017-01-24T00:55:21.827Z,1014.34
2017-01-24T00:56:02.460Z,1014.29
2017-01-24T00:56:43.128Z,1014.3
2017-01-24T00:57:23.767Z,1014.33
2017-01-24T00:58:04.392Z,1014.32
2017-01-24T00:58:45.072Z,1014.26
2017-01-24T00:59:25.695Z,1014.29
2017-01-24T01:00:06.321Z,1014.27
2017-01-24T01:00:47.039Z,1014.27
2017-01-24T01:01:27.669Z,1014.26
2017-01-24T01:02:08.290Z,1014.28
2017-01-24T01:02:48.927Z,1014.24
2017-01-24T01:03:29.560Z,1014.22
2017-01-24T01:04:10.185Z,1014.22
2017-01-24T01:04:50.828Z,1014.25
2017-01-24T01:05:31.469Z,1014.22
2017-01-24T01:06:12.097Z,1014.21
2017-01-24T01:06:52.749Z,1014.23
2017-01-24T01:07:33.378Z,1014.24
2017-01-24T01:08:14.092Z,1014.26
2017-01-24T01:08:54.771Z,1014.25
2017-01-24T01:09:35.520Z,1014.2
2017-01-24T01:10:16.289Z,1014.22
2017-01-24T01:10:56.976Z,1014.19
2017-01-24T01:11:37.611Z,1014.22
2017-01-24T01:12:18.282Z,1014.25
2017-01-24T01:12:58.909Z,1014.22
2017-01-24T01:13:39.546Z,1014.19
2017-01-24T01:14:20.193Z,1014.23
2017-01-24T01:15:00.906Z,1014.23
2017-01-24T01:15:41.563Z,1014.22
2017-01-24T01:16:22.227Z,1014.25
2017-01-24T01:17:02.866Z,1014.21
2017-01-24T01:17:43.501Z,1014.22
2017-01-24T01:18:24.209Z,1014.24
2017-01-24T01:19:04.858Z,1014.24
2017-01-24T01:19:45.479Z,1014.2
2017-01-24T01:20:26.190Z,1014.2
2017-01-24T01:21:06.831Z,1014.21
2017-01-24T01:21:47.453Z,1014.18
2017-01-24T01:22:28.088Z,1014.23
2017-01-24T01:23:08.718Z,1014.16
2017-01-24T01:23:49.382Z,1014.18
2017-01-24T01:24:30.007Z,1014.1
2017-01-24T01:25:10.641Z,1014.17
2017-01-24T01:25:51.276Z,1014.17
2017-01-24T01:26:31.907Z,1014.15
2017-01-24T01:27:12.540Z,1014.16
2017-01-24T01:27:53.209Z,1014.14
2017-01-24T01:28:33.816Z,1014.15
2017-01-24T01:29:14.445Z,1014.12
2017-01-24T01:29:55.070Z,1014.15
2017-01-24T01:30:35.696Z,1014.18
2017-01-24T01:31:16.387Z,1014.15
2017-01-24T01:31:57.007Z,1014.13
2017-01-24T01:32:37.643Z,1014.11
2017-01-24T01:33:18.278Z,1014.08
2017-01-24T01:33:58.926Z,1014.1
2017-01-24T01:34:39.556Z,1014.11
2017-01-24T01:35:20.183Z,1014.07
2017-01-24T01:36:00.804Z,1014.1
2017-01-24T01:36:41.479Z,1014.08
2017-01-24T01:37:22.189Z,1014.06
2017-01-24T01:38:02.848Z,1014.1
2017-01-24T01:38:43.456Z,1014.07
2017-01-24T01:39:24.096Z,1014.09
2017-01-24T01:40:04.745Z,1014.09
2017-01-24T01:40:45.372Z,1014.07
2017-01-24T01:41:26.010Z,1014.13
2017-01-24T01:42:06.679Z,1014.1
2017-01-24T01:42:47.316Z,1014.08
2017-01-24T01:43:27.942Z,1014.1
2017-01-24T01:44:08.676Z,1014.14
2017-01-24T01:44:49.304Z,1014.11
2017-01-24T01:45:29.930Z,1014.12
2017-01-24T01:46:10.623Z,1014.11
2017-01-24T01:46:51.249Z,1014.12
2017-01-24T01:47:31.904Z,1014.14
2017-01-24T01:48:12.528Z,1014.14
2017-01-24T01:48:53.160Z,1014.09
2017-01-24T01:49:33.819Z,1014.13
2017-01-24T01:50:14.487Z,1014.11
2017-01-24T01:50:55.121Z,1014.13
2017-01-24T01:51:35.742Z,1014.12
2017-01-24T01:52:16.467Z,1014.12
2017-01-24T01:52:57.081Z,1014.11
2017-01-24T01:53:37.719Z,1014.12
2017-01-24T01:54:18.350Z,1014.14
2017-01-24T01:54:58.981Z,1014.12
2017-01-24T01:55:39.603Z,1014.13
2017-01-24T01:56:20.241Z,1014.14
2017-01-24T01:57:00.892Z,1014.16
2017-01-24T01:57:41.552Z,1014.14
2017-01-24T01:58:22.190Z,1014.16
2017-01-24T01:59:02.825Z,1014.13
2017-01-24T01:59:43.452Z,1014.21
2017-01-24T02:00:24.119Z,1014.16
2017-01-24T02:01:04.746Z,1014.21
2017-01-24T02:01:45.387Z,1014.22
2017-01-24T02:02:26.018Z,1014.17
2017-01-24T02:03:06.658Z,1014.21
2017-01-24T02:03:47.354Z,1014.2
2017-01-24T02:04:27.979Z,1014.25
2017-01-24T02:05:08.611Z,1014.22
2017-01-24T02:05:49.227Z,1014.23
2017-01-24T02:06:29.863Z,1014.2
2017-01-24T02:07:10.517Z,1014.19
2017-01-24T02:07:51.141Z,1014.18
2017-01-24T02:08:31.811Z,1014.2
2017-01-24T02:09:12.447Z,1014.18
2017-01-24T02:09:53.162Z,1014.15
2017-01-24T02:10:33.829Z,1014.2
2017-01-24T02:11:14.486Z,1014.22
2017-01-24T02:11:55.209Z,1014.19
2017-01-24T02:12:35.852Z,1014.18
2017-01-24T02:13:16.547Z,1014.19
2017-01-24T02:13:57.265Z,1014.2
2017-01-24T02:14:37.993Z,1014.19
2017-01-24T02:15:18.714Z,1014.17
2017-01-24T02:15:59.421Z,1014.2
2017-01-24T02:16:40.255Z,1014.18
2017-01-24T02:17:20.966Z,1014.16
2017-01-24T02:18:01.678Z,1014.19
2017-01-24T02:18:42.532Z,1014.17
2017-01-24T02:19:23.259Z,1014.22
2017-01-24T02:20:03.978Z,1014.18
2017-01-24T02:20:44.691Z,1014.23
2017-01-24T02:21:26.393Z,1014.22
2017-01-24T02:22:07.118Z,1014.24
2017-01-24T02:22:47.825Z,1014.24
2017-01-24T02:23:28.535Z,1014.23
2017-01-24T02:24:09.247Z,1014.2
2017-01-24T02:24:49.967Z,1014.24
2017-01-24T02:25:30.696Z,1014.24
2017-01-24T02:26:11.458Z,1014.24
2017-01-24T02:26:52.178Z,1014.26
2017-01-24T02:27:32.922Z,1014.26
2017-01-24T02:28:13.636Z,1014.26
2017-01-24T02:28:54.445Z,1014.23
2017-01-24T02:29:35.167Z,1014.25
2017-01-24T02:30:15.876Z,1014.25
2017-01-24T02:30:56.581Z,1014.23
2017-01-24T02:31:37.289Z,1014.26
2017-01-24T02:32:18.001Z,1014.23
2017-01-24T02:32:58.703Z,1014.29
2017-01-24T02:33:39.426Z,1014.28
2017-01-24T02:34:20.141Z,1014.26
2017-01-24T02:35:00.863Z,1014.27
2017-01-24T02:35:41.611Z,1014.27
2017-01-24T02:36:22.321Z,1014.3
2017-01-24T02:37:03.033Z,1014.31
2017-01-24T02:37:43.768Z,1014.28
2017-01-24T02:38:24.393Z,1014.32
2017-01-24T02:39:05.067Z,1014.31
2017-01-24T02:39:45.699Z,1014.31
2017-01-24T02:40:26.376Z,1014.28
2017-01-24T02:41:07.008Z,1014.29
2017-01-24T02:41:47.651Z,1014.31
2017-01-24T02:42:28.273Z,1014.38
2017-01-24T02:43:08.915Z,1014.28
2017-01-24T02:43:49.535Z,1014.31
2017-01-24T02:44:30.179Z,1014.34
2017-01-24T02:45:10.814Z,1014.31
2017-01-24T02:45:51.434Z,1014.37
2017-01-24T02:46:32.108Z,1014.32
2017-01-24T02:47:12.728Z,1014.38
2017-01-24T02:47:53.378Z,1014.35
2017-01-24T02:48:33.981Z,1014.35
2017-01-24T02:49:14.624Z,1014.35
2017-01-24T02:49:55.255Z,1014.38
2017-01-24T02:50:35.899Z,1014.41
2017-01-24T02:51:16.516Z,1014.37
2017-01-24T02:51:57.162Z,1014.38
2017-01-24T02:52:37.789Z,1014.41
2017-01-24T02:53:18.413Z,1014.42
2017-01-24T02:53:59.051Z,1014.39
2017-01-24T02:54:39.677Z,1014.41
2017-01-24T02:55:20.362Z,1014.41
2017-01-24T02:56:01.011Z,1014.42
2017-01-24T02:56:41.627Z,1014.45
2017-01-24T02:57:22.273Z,1014.42
2017-01-24T02:58:02.880Z,1014.45
2017-01-24T02:58:43.536Z,1014.45
2017-01-24T02:59:24.173Z,1014.49
2017-01-24T03:00:04.842Z,1014.46
2017-01-24T03:00:45.479Z,1014.45
2017-01-24T03:01:26.102Z,1014.44
2017-01-24T03:02:06.784Z,1014.47
2017-01-24T03:02:47.412Z,1014.45
2017-01-24T03:03:28.035Z,1014.48
2017-01-24T03:04:08.662Z,1014.44
2017-01-24T03:04:49.296Z,1014.44
2017-01-24T03:05:29.944Z,1014.48
2017-01-24T03:06:10.668Z,1014.47
2017-01-24T03:06:51.291Z,1014.48
2017-01-24T03:07:31.927Z,1014.5
2017-01-24T03:08:12.619Z,1014.48
2017-01-24T03:08:53.257Z,1014.48
2017-01-24T03:09:33.923Z,1014.51
2017-01-24T03:10:14.623Z,1014.51
2017-01-24T03:10:55.248Z,1014.52
2017-01-24T03:11:35.941Z,1014.56
2017-01-24T03:12:16.582Z,1014.52
2017-01-24T03:12:57.223Z,1014.53
2017-01-24T03:13:37.923Z,1014.56
2017-01-24T03:14:18.578Z,1014.54
2017-01-24T03:14:59.216Z,1014.55
2017-01-24T03:15:39.842Z,1014.59
2017-01-24T03:16:20.466Z,1014.55
2017-01-24T03:17:01.137Z,1014.57
2017-01-24T03:17:41.828Z,1014.57
2017-01-24T03:18:22.456Z,1014.59
2017-01-24T03:19:03.077Z,1014.59
2017-01-24T03:19:43.805Z,1014.58
2017-01-24T03:20:24.432Z,1014.59
2017-01-24T03:21:05.069Z,1014.61
2017-01-24T03:21:45.700Z,1014.6
2017-01-24T03:22:26.341Z,1014.59
2017-01-24T03:23:06.967Z,1014.58
2017-01-24T03:23:47.596Z,1014.59
2017-01-24T03:24:28.252Z,1014.58
2017-01-24T03:25:08.887Z,1014.56
2017-01-24T03:25:49.512Z,1014.57
2017-01-24T03:26:30.137Z,1014.54
2017-01-24T03:27:10.774Z,1014.55
2017-01-24T03:27:51.406Z,1014.54
2017-01-24T03:28:32.048Z,1014.61
2017-01-24T03:29:12.751Z,1014.58
2017-01-24T03:29:53.371Z,1014.55
2017-01-24T03:30:34.003Z,1014.58
2017-01-24T03:31:14.722Z,1014.62
2017-01-24T03:31:55.344Z,1014.57
2017-01-24T03:32:35.979Z,1014.56
2017-01-24T03:33:16.678Z,1014.57
2017-01-24T03:33:57.345Z,1014.59
2017-01-24T03:34:37.966Z,1014.57
2017-01-24T03:35:18.598Z,1014.57
2017-01-24T03:35:59.220Z,1014.57
2017-01-24T03:36:39.853Z,1014.56
2017-01-24T03:37:20.484Z,1014.57
2017-01-24T03:38:01.102Z,1014.58
2017-01-24T03:38:41.737Z,1014.57
2017-01-24T03:39:22.384Z,1014.56
2017-01-24T03:40:04.341Z,1014.62
2017-01-24T03:40:44.974Z,1014.58
2017-01-24T03:41:25.699Z,1014.61
2017-01-24T03:42:06.335Z,1014.64
2017-01-24T03:42:46.959Z,1014.63
2017-01-24T03:43:27.578Z,1014.59
2017-01-24T03:44:08.252Z,1014.62
2017-01-24T03:44:48.885Z,1014.62
2017-01-24T03:45:29.514Z,1014.63
2017-01-24T03:46:10.180Z,1014.61
2017-01-24T03:46:50.806Z,1014.63
2017-01-24T03:47:31.429Z,1014.65
2017-01-24T03:48:12.119Z,1014.69
2017-01-24T03:48:52.792Z,1014.66
2017-01-24T03:49:33.428Z,1014.66
2017-01-24T03:50:14.056Z,1014.65
2017-01-24T03:50:54.685Z,1014.63
2017-01-24T03:51:35.329Z,1014.68
2017-01-24T03:52:15.965Z,1014.65
2017-01-24T03:52:56.596Z,1014.68
2017-01-24T03:53:37.352Z,1014.67
2017-01-24T03:54:17.981Z,1014.69
2017-01-24T03:54:58.607Z,1014.68
2017-01-24T03:55:39.245Z,1014.69
2017-01-24T03:56:19.909Z,1014.7
2017-01-24T03:57:00.533Z,1014.65
2017-01-24T03:57:41.170Z,1014.7
2017-01-24T03:58:21.843Z,1014.72
2017-01-24T03:59:02.475Z,1014.67
2017-01-24T03:59:43.107Z,1014.69
2017-01-24T04:00:23.787Z,1014.73
2017-01-24T04:01:04.415Z,1014.67
2017-01-24T04:01:45.064Z,1014.71
2017-01-24T04:02:25.663Z,1014.72
2017-01-24T04:03:06.290Z,1014.71
2017-01-24T04:03:46.934Z,1014.69
2017-01-24T04:04:27.567Z,1014.7
2017-01-24T04:05:08.198Z,1014.73
2017-01-24T04:05:48.878Z,1014.72
2017-01-24T04:06:29.505Z,1014.71
2017-01-24T04:07:10.156Z,1014.74
2017-01-24T04:07:50.847Z,1014.71
2017-01-24T04:08:31.482Z,1014.7
2017-01-24T04:09:12.115Z,1014.68
2017-01-24T04:09:52.742Z,1014.7
2017-01-24T04:10:33.371Z,1014.67
2017-01-24T04:11:14.024Z,1014.67
2017-01-24T04:11:54.669Z,1014.69
2017-01-24T04:12:35.299Z,1014.69
2017-01-24T04:13:15.932Z,1014.63
2017-01-24T04:13:56.570Z,1014.64
2017-01-24T04:14:37.204Z,1014.61
2017-01-24T04:15:17.846Z,1014.64
2017-01-24T04:15:58.474Z,1014.63
2017-01-24T04:16:39.176Z,1014.68
2017-01-24T04:17:19.795Z,1014.64
2017-01-24T04:18:00.436Z,1014.62
2017-01-24T04:18:41.108Z,1014.64
2017-01-24T04:19:21.760Z,1014.65
2017-01-24T04:20:02.393Z,1014.63
2017-01-24T04:20:43.019Z,1014.6
2017-01-24T04:21:23.647Z,1014.59
2017-01-24T04:22:04.345Z,1014.57
2017-01-24T04:22:44.990Z,1014.55
2017-01-24T04:23:25.625Z,1014.56
2017-01-24T04:24:06.297Z,1014.58
2017-01-24T04:24:46.939Z,1014.58
2017-01-24T04:25:27.581Z,1014.59
2017-01-24T04:26:08.225Z,1014.55
2017-01-24T04:26:48.864Z,1014.57
2017-01-24T04:27:29.491Z,1014.55
2017-01-24T04:28:10.141Z,1014.6
2017-01-24T04:28:50.799Z,1014.57
2017-01-24T04:29:31.442Z,1014.57
2017-01-24T04:30:12.082Z,1014.56
2017-01-24T04:30:52.712Z,1014.54
2017-01-24T04:31:33.342Z,1014.57
2017-01-24T04:32:13.986Z,1014.57
2017-01-24T04:32:54.618Z,1014.53
2017-01-24T04:33:35.243Z,1014.53
2017-01-24T04:34:15.920Z,1014.51
2017-01-24T04:34:56.557Z,1014.53
2017-01-24T04:35:37.240Z,1014.52
2017-01-24T04:36:17.877Z,1014.54
2017-01-24T04:36:58.530Z,1014.56
2017-01-24T04:37:39.181Z,1014.52
2017-01-24T04:38:19.853Z,1014.54
2017-01-24T04:39:00.483Z,1014.53
2017-01-24T04:39:41.098Z,1014.51
2017-01-24T04:40:21.801Z,1014.53
2017-01-24T04:41:02.448Z,1014.54
2017-01-24T04:41:43.130Z,1014.57
2017-01-24T04:42:23.759Z,1014.58
2017-01-24T04:43:04.381Z,1014.58
2017-01-24T04:43:45.009Z,1014.57
2017-01-24T04:44:25.636Z,1014.63
2017-01-24T04:45:06.267Z,1014.61
2017-01-24T04:45:46.950Z,1014.64
2017-01-24T04:46:27.592Z,1014.59
2017-01-24T04:47:08.316Z,1014.6
2017-01-24T04:47:48.962Z,1014.6
2017-01-24T04:48:29.693Z,1014.6
2017-01-24T04:49:10.326Z,1014.59
2017-01-24T04:49:50.960Z,1014.62
2017-01-24T04:50:31.590Z,1014.61
2017-01-24T04:51:12.237Z,1014.58
2017-01-24T04:51:52.874Z,1014.58
2017-01-24T04:52:33.507Z,1014.56
2017-01-24T04:53:14.136Z,1014.59
2017-01-24T04:53:54.768Z,1014.57
2017-01-24T04:54:35.398Z,1014.52
2017-01-24T04:55:16.119Z,1014.52
2017-01-24T04:55:56.754Z,1014.53
2017-01-24T04:56:37.391Z,1014.51
2017-01-24T04:57:18.016Z,1014.53
2017-01-24T04:57:58.667Z,1014.51
2017-01-24T04:58:39.299Z,1014.51
2017-01-24T04:59:19.928Z,1014.49
2017-01-24T05:00:00.546Z,1014.51
2017-01-24T05:00:41.183Z,1014.52
2017-01-24T05:01:21.816Z,1014.53
2017-01-24T05:02:02.440Z,1014.5
2017-01-24T05:02:43.109Z,1014.53
2017-01-24T05:03:23.752Z,1014.55
2017-01-24T05:04:04.391Z,1014.51
2017-01-24T05:04:45.030Z,1014.53
2017-01-24T05:05:25.670Z,1014.52
2017-01-24T05:06:06.304Z,1014.54
2017-01-24T05:06:47.024Z,1014.51
2017-01-24T05:07:27.674Z,1014.56
2017-01-24T05:08:08.304Z,1014.53
2017-01-24T05:08:48.942Z,1014.52
2017-01-24T05:09:29.573Z,1014.52
2017-01-24T05:10:10.206Z,1014.55
2017-01-24T05:10:50.924Z,1014.49
2017-01-24T05:11:31.567Z,1014.49
2017-01-24T05:12:12.221Z,1014.52
2017-01-24T05:12:52.849Z,1014.49
2017-01-24T05:13:33.481Z,1014.51
2017-01-24T05:14:14.127Z,1014.52
2017-01-24T05:14:54.758Z,1014.49
2017-01-24T05:15:35.393Z,1014.51
2017-01-24T05:16:16.022Z,1014.5
2017-01-24T05:16:56.648Z,1014.47
2017-01-24T05:17:37.288Z,1014.44
2017-01-24T05:18:17.989Z,1014.47
2017-01-24T05:18:58.622Z,1014.48
2017-01-24T05:19:39.251Z,1014.46
2017-01-24T05:20:19.894Z,1014.46
2017-01-24T05:21:00.539Z,1014.43
2017-01-24T05:21:41.188Z,1014.45
2017-01-24T05:22:21.813Z,1014.46
2017-01-24T05:23:02.449Z,1014.43
2017-01-24T05:23:43.077Z,1014.45
2017-01-24T05:24:23.731Z,1014.43
2017-01-24T05:25:04.367Z,1014.43
2017-01-24T05:25:45.005Z,1014.43
2017-01-24T05:26:25.724Z,1014.42
2017-01-24T05:27:06.370Z,1014.41
2017-01-24T05:27:47.102Z,1014.4
2017-01-24T05:28:27.747Z,1014.44
2017-01-24T05:29:08.421Z,1014.4
2017-01-24T05:29:49.074Z,1014.4
2017-01-24T05:30:29.704Z,1014.39
2017-01-24T05:31:10.349Z,1014.42
2017-01-24T05:31:51.068Z,1014.41
2017-01-24T05:32:31.686Z,1014.44
2017-01-24T05:33:12.367Z,1014.41
2017-01-24T05:33:53.099Z,1014.44
2017-01-24T05:34:33.865Z,1014.42
2017-01-24T05:35:14.485Z,1014.46
2017-01-24T05:35:55.256Z,1014.47
2017-01-24T05:36:35.920Z,1014.44
2017-01-24T05:37:16.550Z,1014.44
2017-01-24T05:37:57.208Z,1014.47
2017-01-24T05:38:37.890Z,1014.42
2017-01-24T05:39:18.542Z,1014.45
2017-01-24T05:39:59.239Z,1014.42
2017-01-24T05:40:39.868Z,1014.42
2017-01-24T05:41:20.525Z,1014.4
2017-01-24T05:42:01.190Z,1014.42
2017-01-24T05:42:41.905Z,1014.43
2017-01-24T05:43:22.531Z,1014.42
2017-01-24T05:44:03.172Z,1014.43
2017-01-24T05:44:43.846Z,1014.4
2017-01-24T05:45:24.486Z,1014.44
2017-01-24T05:46:05.131Z,1014.44
2017-01-24T05:46:45.769Z,1014.44
2017-01-24T05:47:26.393Z,1014.43
2017-01-24T05:48:07.148Z,1014.41
2017-01-24T05:48:47.829Z,1014.42
2017-01-24T05:49:28.525Z,1014.38
2017-01-24T05:50:09.210Z,1014.4
2017-01-24T05:50:49.844Z,1014.42
2017-01-24T05:51:30.518Z,1014.4
2017-01-24T05:52:11.170Z,1014.4
2017-01-24T05:52:51.830Z,1014.43
2017-01-24T05:53:32.509Z,1014.41
2017-01-24T05:54:13.152Z,1014.46
2017-01-24T05:54:53.789Z,1014.41
2017-01-24T05:55:34.442Z,1014.45
2017-01-24T05:56:15.090Z,1014.47
2017-01-24T05:56:55.871Z,1014.5
2017-01-24T05:57:36.539Z,1014.46
2017-01-24T05:58:17.273Z,1014.46
2017-01-24T05:58:57.916Z,1014.49
2017-01-24T05:59:38.627Z,1014.49
2017-01-24T06:00:19.269Z,1014.52
2017-01-24T06:00:59.896Z,1014.5
2017-01-24T06:01:40.523Z,1014.51
2017-01-24T06:02:21.173Z,1014.5
2017-01-24T06:03:01.800Z,1014.48
2017-01-24T06:03:42.472Z,1014.52
2017-01-24T06:04:23.158Z,1014.45
2017-01-24T06:05:03.807Z,1014.5
2017-01-24T06:05:44.458Z,1014.51
2017-01-24T06:06:25.174Z,1014.49
2017-01-24T06:07:05.799Z,1014.47
2017-01-24T06:07:46.455Z,1014.49
2017-01-24T06:08:27.162Z,1014.48
2017-01-24T06:09:07.909Z,1014.52
2017-01-24T06:09:48.583Z,1014.5
2017-01-24T06:10:29.263Z,1014.5
2017-01-24T06:11:09.931Z,1014.47
2017-01-24T06:11:50.589Z,1014.53
2017-01-24T06:12:31.217Z,1014.49
2017-01-24T06:13:11.865Z,1014.49
2017-01-24T06:13:52.508Z,1014.49
2017-01-24T06:14:33.147Z,1014.48
2017-01-24T06:15:13.819Z,1014.48
2017-01-24T06:15:54.451Z,1014.48
2017-01-24T06:16:35.154Z,1014.5
2017-01-24T06:17:15.813Z,1014.48
2017-01-24T06:17:56.460Z,1014.5
2017-01-24T06:18:37.249Z,1014.51
2017-01-24T06:19:17.901Z,1014.5
2017-01-24T06:19:58.589Z,1014.51
2017-01-24T06:20:39.255Z,1014.47
2017-01-24T06:21:19.947Z,1014.51
2017-01-24T06:22:00.593Z,1014.47
2017-01-24T06:22:41.241Z,1014.48
2017-01-24T06:23:21.869Z,1014.42
2017-01-24T06:24:02.505Z,1014.5
2017-01-24T06:24:43.129Z,1014.46
2017-01-24T06:25:23.813Z,1014.47
2017-01-24T06:26:04.458Z,1014.52
2017-01-24T06:26:45.091Z,1014.52
2017-01-24T06:27:25.792Z,1014.51
2017-01-24T06:28:06.432Z,1014.51
2017-01-24T06:28:47.073Z,1014.54
2017-01-24T06:29:27.711Z,1014.55
2017-01-24T06:30:08.331Z,1014.53
2017-01-24T06:30:48.972Z,1014.54
2017-01-24T06:31:29.646Z,1014.5
2017-01-24T06:32:10.289Z,1014.51
2017-01-24T06:32:50.952Z,1014.56
2017-01-24T06:33:31.594Z,1014.6
2017-01-24T06:34:12.215Z,1014.58
2017-01-24T06:34:52.886Z,1014.6
2017-01-24T06:35:33.605Z,1014.58
2017-01-24T06:36:14.254Z,1014.63
2017-01-24T06:36:54.863Z,1014.62
2017-01-24T06:37:35.541Z,1014.62
2017-01-24T06:38:16.176Z,1014.63
2017-01-24T06:38:56.805Z,1014.61
2017-01-24T06:39:37.578Z,1014.66
2017-01-24T06:40:18.207Z,1014.62
2017-01-24T06:40:58.829Z,1014.64
2017-01-24T06:41:39.539Z,1014.68
2017-01-24T06:42:20.173Z,1014.69
2017-01-24T06:43:00.791Z,1014.65
2017-01-24T06:43:41.477Z,1014.64
2017-01-24T06:44:22.117Z,1014.64
2017-01-24T06:45:02.745Z,1014.68
2017-01-24T06:45:43.418Z,1014.66
2017-01-24T06:46:24.071Z,1014.68
2017-01-24T06:47:04.717Z,1014.65
2017-01-24T06:47:45.945Z,1014.67
2017-01-24T06:48:26.592Z,1014.68
2017-01-24T06:49:07.212Z,1014.72
2017-01-24T06:49:47.831Z,1014.75
2017-01-24T06:50:28.460Z,1014.73
2017-01-24T06:51:09.088Z,1014.75
2017-01-24T06:51:49.741Z,1014.77
2017-01-24T06:52:30.356Z,1014.8
2017-01-24T06:53:11.007Z,1014.8
2017-01-24T06:53:51.669Z,1014.84
2017-01-24T06:54:32.312Z,1014.81
2017-01-24T06:55:12.965Z,1014.86
2017-01-24T06:55:53.598Z,1014.85
2017-01-24T06:56:34.218Z,1014.85
2017-01-24T06:57:14.907Z,1014.83
2017-01-24T06:57:55.534Z,1014.84
2017-01-24T06:58:36.161Z,1014.9
2017-01-24T06:59:16.872Z,1014.87
2017-01-24T06:59:57.491Z,1014.87
2017-01-24T07:00:38.122Z,1014.9
2017-01-24T07:01:18.766Z,1014.9
2017-01-24T07:01:59.406Z,1014.94
2017-01-24T07:02:40.036Z,1014.95
2017-01-24T07:03:20.665Z,1014.93
2017-01-24T07:04:01.294Z,1014.92
2017-01-24T07:04:41.939Z,1014.94
2017-01-24T07:05:22.672Z,1014.95
2017-01-24T07:06:03.315Z,1014.92
2017-01-24T07:06:43.970Z,1014.95
2017-01-24T07:07:24.686Z,1014.96
2017-01-24T07:08:05.326Z,1014.99
2017-01-24T07:08:45.969Z,1014.98
2017-01-24T07:09:26.667Z,1014.96
2017-01-24T07:10:07.293Z,1014.95
2017-01-24T07:10:47.939Z,1015
2017-01-24T07:11:28.630Z,1014.98
2017-01-24T07:12:09.295Z,1015.01
2017-01-24T07:12:49.927Z,1014.99
2017-01-24T07:13:30.637Z,1014.96
2017-01-24T07:14:11.299Z,1014.96
2017-01-24T07:14:51.921Z,1015
2017-01-24T07:15:32.619Z,1014.99
2017-01-24T07:16:13.243Z,1015
2017-01-24T07:16:53.865Z,1015.02
2017-01-24T07:17:34.507Z,1015.05
2017-01-24T07:18:15.157Z,1015.05
2017-01-24T07:18:55.785Z,1015.06
2017-01-24T07:19:36.411Z,1015.05
2017-01-24T07:20:17.045Z,1015.04
2017-01-24T07:20:57.684Z,1015.06
2017-01-24T07:21:38.309Z,1015.07
2017-01-24T07:22:19.043Z,1015.05
2017-01-24T07:22:59.675Z,1015.03
2017-01-24T07:23:40.299Z,1015.1
2017-01-24T07:24:21.051Z,1015
2017-01-24T07:25:01.689Z,1015.04
2017-01-24T07:25:42.312Z,1015.06
2017-01-24T07:26:23.021Z,1015.07
2017-01-24T07:27:03.652Z,1015.08
2017-01-24T07:27:44.298Z,1015.11
2017-01-24T07:28:25.055Z,1015.09
2017-01-24T07:29:05.696Z,1015.11
2017-01-24T07:29:46.328Z,1015.1
2017-01-24T07:30:26.978Z,1015.12
2017-01-24T07:31:07.617Z,1015.14
2017-01-24T07:31:48.257Z,1015.12
2017-01-24T07:32:28.987Z,1015.17
2017-01-24T07:33:09.625Z,1015.17
2017-01-24T07:33:50.277Z,1015.18
2017-01-24T07:34:30.906Z,1015.21
2017-01-24T07:35:11.538Z,1015.23
2017-01-24T07:35:52.165Z,1015.21
2017-01-24T07:36:32.924Z,1015.25
2017-01-24T07:37:13.544Z,1015.24
2017-01-24T07:37:54.194Z,1015.25
2017-01-24T07:38:34.849Z,1015.29
2017-01-24T07:39:15.475Z,1015.26
2017-01-24T07:39:56.126Z,1015.26
2017-01-24T07:40:36.811Z,1015.29
2017-01-24T07:41:17.435Z,1015.26
2017-01-24T07:41:58.070Z,1015.32
2017-01-24T07:42:38.692Z,1015.29
2017-01-24T07:43:19.332Z,1015.32
2017-01-24T07:43:59.967Z,1015.34
2017-01-24T07:44:40.587Z,1015.33
2017-01-24T07:45:21.210Z,1015.31
2017-01-24T07:46:01.843Z,1015.35
2017-01-24T07:46:42.473Z,1015.33
2017-01-24T07:47:23.936Z,1015.34
2017-01-24T07:48:04.570Z,1015.35
2017-01-24T07:48:45.221Z,1015.35
2017-01-24T07:49:25.844Z,1015.41
2017-01-24T07:50:06.473Z,1015.4
2017-01-24T07:50:47.127Z,1015.41
2017-01-24T07:51:27.764Z,1015.41
2017-01-24T07:52:08.485Z,1015.4
2017-01-24T07:52:49.106Z,1015.41
2017-01-24T07:53:29.743Z,1015.4
2017-01-24T07:54:10.388Z,1015.37
2017-01-24T07:54:51.004Z,1015.44
2017-01-24T07:55:31.666Z,1015.45
2017-01-24T07:56:12.306Z,1015.41
2017-01-24T07:56:52.946Z,1015.43
2017-01-24T07:57:33.575Z,1015.43
2017-01-24T07:58:14.200Z,1015.45
2017-01-24T07:58:54.845Z,1015.46
2017-01-24T07:59:35.469Z,1015.45
2017-01-24T08:00:16.218Z,1015.47
2017-01-24T08:00:56.846Z,1015.48
2017-01-24T08:01:37.477Z,1015.47
2017-01-24T08:02:18.123Z,1015.45
2017-01-24T08:02:58.767Z,1015.48
2017-01-24T08:03:39.391Z,1015.45
2017-01-24T08:04:20.052Z,1015.47
2017-01-24T08:05:00.694Z,1015.48
2017-01-24T08:05:41.332Z,1015.5
2017-01-24T08:06:21.963Z,1015.49
2017-01-24T08:07:02.587Z,1015.52
2017-01-24T08:07:43.206Z,1015.5
2017-01-24T08:08:23.854Z,1015.51
2017-01-24T08:09:04.506Z,1015.51
2017-01-24T08:09:45.134Z,1015.53
2017-01-24T08:10:25.763Z,1015.55
2017-01-24T08:11:06.409Z,1015.53
2017-01-24T08:11:47.043Z,1015.56
2017-01-24T08:12:27.739Z,1015.58
2017-01-24T08:13:08.368Z,1015.6
2017-01-24T08:13:49.017Z,1015.57